TimeCST,TemperatureF,Dew PointF,Humidity,Sea Level PressureIn,VisibilityMPH,Wind Direction,Wind SpeedMPH,Gust SpeedMPH,PrecipitationIn,Events,Conditions,WindDirDegrees,DateUTC
12:15 AM,17.6,15.8,93,29.69,10.0,South,3.5,-,N/A,,Clear,180,2012-02-14 06:15:00
12:34 AM,17.6,15.8,93,29.68,10.0,South,3.5,-,N/A,,Clear,180,2012-02-14 06:34:00
12:55 AM,15.8,14.0,93,29.68,10.0,South,3.5,-,N/A,,Clear,170,2012-02-14 06:55:00
1:15 AM,15.8,14.0,93,29.68,10.0,Calm,Calm,-,N/A,,Clear,0,2012-02-14 07:15:00
1:35 AM,15.8,12.2,86,29.67,10.0,SSE,3.5,-,N/A,,Clear,160,2012-02-14 07:35:00
2:15 AM,15.8,14.0,93,29.68,10.0,Calm,Calm,-,N/A,,Clear,0,2012-02-14 08:15:00
2:35 AM,15.8,12.2,86,29.68,10.0,South,3.5,-,N/A,,Scattered Clouds,170,2012-02-14 08:35:00
2:54 AM,15.8,14.0,93,29.67,10.0,SSE,4.6,-,N/A,,Mostly Cloudy,160,2012-02-14 08:54:00
3:14 AM,15.8,15.8,100,29.66,10.0,SSE,3.5,-,N/A,,Mostly Cloudy,160,2012-02-14 09:14:00
3:34 AM,15.8,14.0,93,29.66,10.0,Calm,Calm,-,N/A,,Mostly Cloudy,0,2012-02-14 09:34:00
3:55 AM,15.8,12.2,86,29.66,10.0,Calm,Calm,-,N/A,,Overcast,0,2012-02-14 09:55:00
4:15 AM,17.6,15.8,93,29.66,10.0,SE,3.5,-,N/A,,Overcast,140,2012-02-14 10:15:00
4:35 AM,17.6,15.8,93,29.65,10.0,SE,4.6,-,N/A,,Overcast,140,2012-02-14 10:35:00
4:54 AM,17.6,15.8,93,29.65,10.0,SE,4.6,-,N/A,,Overcast,140,2012-02-14 10:54:00
5:15 AM,17.6,15.8,93,29.65,10.0,SE,4.6,-,N/A,,Overcast,140,2012-02-14 11:15:00
5:35 AM,17.6,15.8,93,29.65,10.0,SE,5.8,-,N/A,,Overcast,140,2012-02-14 11:35:00
5:55 AM,17.6,15.8,93,29.64,10.0,SE,4.6,-,N/A,,Overcast,130,2012-02-14 11:55:00
6:15 AM,19.4,17.6,93,29.64,10.0,SE,5.8,-,N/A,,Overcast,130,2012-02-14 12:15:00
6:34 AM,19.4,17.6,93,29.63,10.0,SE,5.8,-,N/A,,Overcast,130,2012-02-14 12:34:00
6:54 AM,19.4,17.6,93,29.64,10.0,SE,4.6,-,N/A,,Overcast,140,2012-02-14 12:54:00
7:14 AM,19.4,17.6,93,29.64,10.0,SE,5.8,-,N/A,,Overcast,140,2012-02-14 13:14:00
7:35 AM,19.4,17.6,93,29.63,10.0,SE,5.8,-,N/A,,Overcast,130,2012-02-14 13:35:00
7:55 AM,21.2,17.6,86,29.64,10.0,SSE,5.8,-,N/A,,Overcast,150,2012-02-14 13:55:00
8:15 AM,21.2,17.6,86,29.65,10.0,SSE,6.9,-,N/A,,Mostly Cloudy,150,2012-02-14 14:15:00
8:35 AM,21.2,19.4,93,29.64,10.0,ESE,8.1,-,N/A,,Scattered Clouds,110,2012-02-14 14:35:00
8:55 AM,23.0,19.4,86,29.64,10.0,SE,9.2,-,N/A,,Scattered Clouds,130,2012-02-14 14:55:00
9:15 AM,24.8,19.4,80,29.64,7.0,ESE,5.8,-,N/A,Snow,Light Snow,120,2012-02-14 15:15:00
9:35 AM,24.8,21.2,86,29.64,7.0,ESE,6.9,-,N/A,Snow,Light Snow,120,2012-02-14 15:35:00
9:55 AM,26.6,21.2,80,29.64,10.0,SE,6.9,-,N/A,,Mostly Cloudy,130,2012-02-14 15:55:00
10:18 AM,26.6,21.2,80,29.65,10.0,South,8.1,-,N/A,,Mostly Cloudy,170,2012-02-14 16:18:00
10:34 AM,28.4,21.2,74,29.64,7.0,SE,5.8,-,N/A,Snow,Light Snow,130,2012-02-14 16:34:00
10:55 AM,28.4,21.2,74,29.64,10.0,SE,5.8,-,N/A,,Mostly Cloudy,140,2012-02-14 16:55:00
11:15 AM,30.2,23.0,75,29.65,10.0,South,5.8,-,N/A,,Mostly Cloudy,170,2012-02-14 17:15:00
11:35 AM,33.8,23.0,65,29.64,10.0,SSE,4.6,-,N/A,,Overcast,160,2012-02-14 17:35:00
11:55 AM,35.6,23.0,60,29.64,10.0,SSE,5.8,-,N/A,,Mostly Cloudy,160,2012-02-14 17:55:00
12:15 PM,35.6,23.0,60,29.63,10.0,SSE,4.6,-,N/A,,Scattered Clouds,160,2012-02-14 18:15:00
12:35 PM,37.4,23.0,56,29.62,10.0,SE,3.5,-,N/A,,Scattered Clouds,140,2012-02-14 18:35:00
12:55 PM,37.4,23.0,56,29.62,10.0,South,4.6,-,N/A,,Scattered Clouds,180,2012-02-14 18:55:00
1:15 PM,39.2,23.0,52,29.62,10.0,SSE,3.5,-,N/A,,Scattered Clouds,150,2012-02-14 19:15:00
1:35 PM,39.2,23.0,52,29.61,10.0,SSE,3.5,-,N/A,,Scattered Clouds,150,2012-02-14 19:35:00
1:54 PM,39.2,23.0,52,29.61,10.0,Calm,Calm,-,N/A,,Scattered Clouds,0,2012-02-14 19:54:00
2:15 PM,41.0,23.0,49,29.61,10.0,Calm,Calm,-,N/A,,Scattered Clouds,0,2012-02-14 20:15:00
2:35 PM,41.0,23.0,49,29.61,10.0,Calm,Calm,-,N/A,,Scattered Clouds,0,2012-02-14 20:35:00
2:55 PM,42.8,23.0,46,29.61,10.0,SW,5.8,-,N/A,,Mostly Cloudy,220,2012-02-14 20:55:00
3:15 PM,42.8,23.0,46,29.62,10.0,North,-9999.0,-,N/A,,Mostly Cloudy,0,2012-02-14 21:15:00
3:35 PM,41.0,23.0,49,29.63,10.0,West,5.8,-,N/A,,Overcast,260,2012-02-14 21:35:00
3:55 PM,39.2,28.4,65,29.64,10.0,WNW,12.7,16.1,N/A,,Overcast,290,2012-02-14 21:55:00
4:15 PM,35.6,30.2,81,29.64,10.0,NW,10.4,-,N/A,Rain,Light Rain,310,2012-02-14 22:15:00
4:35 PM,35.6,32.0,87,29.64,10.0,WNW,9.2,-,N/A,,Overcast,300,2012-02-14 22:35:00
4:55 PM,35.6,32.0,87,29.65,10.0,NW,5.8,-,N/A,,Overcast,310,2012-02-14 22:55:00
5:15 PM,33.8,30.2,87,29.66,10.0,NW,4.6,-,N/A,,Overcast,320,2012-02-14 23:15:00
5:34 PM,33.8,30.2,87,29.67,10.0,NW,6.9,-,N/A,,Overcast,310,2012-02-14 23:34:00
5:55 PM,33.8,30.2,87,29.68,10.0,NW,4.6,-,N/A,,Overcast,320,2012-02-14 23:55:00
6:15 PM,32.0,30.2,93,29.69,10.0,NW,4.6,-,N/A,,Overcast,320,2012-02-15 00:15:00
6:35 PM,30.2,30.2,100,29.70,10.0,Calm,Calm,-,N/A,,Overcast,0,2012-02-15 00:35:00
7:15 PM,30.2,30.2,100,29.71,10.0,Calm,Calm,-,N/A,,Overcast,0,2012-02-15 01:15:00
7:35 PM,30.2,30.2,100,29.71,10.0,Calm,Calm,-,N/A,,Overcast,0,2012-02-15 01:35:00
7:55 PM,30.2,30.2,100,29.71,7.0,Calm,Calm,-,N/A,,Overcast,0,2012-02-15 01:55:00
8:15 PM,28.4,28.4,100,29.72,7.0,Calm,Calm,-,N/A,,Overcast,0,2012-02-15 02:15:00
8:35 PM,28.4,28.4,100,29.72,5.0,Calm,Calm,-,N/A,,Mostly Cloudy,0,2012-02-15 02:35:00
8:55 PM,26.6,26.6,100,29.72,0.8,SW,3.5,-,N/A,,Mostly Cloudy,230,2012-02-15 02:55:00
9:15 PM,23.0,21.2,93,29.73,0.2,SW,5.8,-,N/A,Fog,Light Freezing Fog,220,2012-02-15 03:15:00
9:35 PM,26.6,26.6,100,29.74,7.0,SW,5.8,-,N/A,,Clear,230,2012-02-15 03:35:00
9:55 PM,26.6,26.6,100,29.74,10.0,SW,5.8,-,N/A,,Clear,230,2012-02-15 03:55:00
10:15 PM,24.8,23.0,93,29.75,10.0,WSW,4.6,-,N/A,,Clear,240,2012-02-15 04:15:00
10:35 PM,24.8,23.0,93,29.75,10.0,WSW,5.8,-,N/A,,Clear,240,2012-02-15 04:35:00
10:55 PM,24.8,23.0,93,29.76,10.0,WSW,4.6,-,N/A,,Clear,250,2012-02-15 04:55:00
11:15 PM,21.2,21.2,100,29.77,7.0,SW,5.8,-,N/A,,Clear,220,2012-02-15 05:15:00
11:35 PM,23.0,21.2,93,29.77,10.0,SW,5.8,-,N/A,,Clear,230,2012-02-15 05:35:00
11:55 PM,19.4,17.6,93,29.77,7.0,WSW,6.9,-,N/A,,Clear,250,2012-02-15 05:55:00